createdAt,value
2022-09-23T00:01:26.121Z,7.60
2022-09-23T00:03:54.129Z,7.60
2022-09-23T00:06:23.150Z,7.60
2022-09-23T00:08:51.817Z,7.60
2022-09-23T00:11:25.476Z,7.50
2022-09-23T00:13:57.371Z,7.40
2022-09-23T00:16:28.668Z,7.50
2022-09-23T00:18:56.510Z,7.50
2022-09-23T00:21:25.431Z,7.50
2022-09-23T00:23:52.908Z,7.50
2022-09-23T00:26:22.819Z,7.50
2022-09-23T00:28:51.693Z,7.50
2022-09-23T00:31:22.920Z,7.50
2022-09-23T00:33:59.733Z,7.70
2022-09-23T00:36:28.217Z,7.50
2022-09-23T00:38:55.923Z,7.40
2022-09-23T00:41:23.690Z,7.50
2022-09-23T00:43:57.228Z,7.50
2022-09-23T00:46:40.757Z,7.40
2022-09-23T00:49:30.611Z,7.40
2022-09-23T00:52:13.695Z,7.40
2022-09-23T00:54:42.281Z,7.40
2022-09-23T00:57:11.279Z,7.40
2022-09-23T00:59:39.319Z,7.40
2022-09-23T01:04:35.109Z,7.90
2022-09-23T01:07:02.895Z,7.40
2022-09-23T01:09:30.540Z,7.50
2022-09-23T01:12:35.491Z,7.40
2022-09-23T01:15:20.765Z,7.40
2022-09-23T01:17:49.639Z,7.40
2022-09-23T01:23:12.225Z,7.30
2022-09-23T01:25:48.563Z,7.60
2022-09-23T01:28:53.715Z,7.40
2022-09-23T01:31:52.450Z,7.30
2022-09-23T01:34:46.212Z,7.20
2022-09-23T01:37:31.541Z,7.20
2022-09-23T01:40:04.860Z,7.30
2022-09-23T01:42:46.781Z,7.20
2022-09-23T01:45:39.111Z,7.10
2022-09-23T01:50:57.728Z,7.10
2022-09-23T01:53:35.200Z,7.10
2022-09-23T01:56:14.139Z,7.40
2022-09-23T01:59:06.105Z,7.20
2022-09-23T02:01:40.149Z,7.20
2022-09-23T02:04:17.605Z,7.20
2022-09-23T02:06:54.832Z,7.20
2022-09-23T02:09:29.925Z,7.20
2022-09-23T02:12:05.027Z,7.30
2022-09-23T02:14:47.043Z,7.30
2022-09-23T02:17:22.594Z,7.30
2022-09-23T02:19:55.407Z,7.30
2022-09-23T02:22:27.812Z,6.90
2022-09-23T02:24:57.379Z,7.20
2022-09-23T02:27:51.820Z,7.30
2022-09-23T02:30:27.199Z,7.30
2022-09-23T02:33:00.694Z,7.30
2022-09-23T02:35:38.451Z,7.30
2022-09-23T02:38:18.262Z,6.90
2022-09-23T02:40:54.712Z,7.70
2022-09-23T02:43:28.205Z,7.30
2022-09-23T02:45:56.383Z,7.30
2022-09-23T02:48:31.024Z,7.30
2022-09-23T02:51:02.259Z,6.10
2022-09-23T02:53:33.932Z,7.40
2022-09-23T02:56:02.244Z,7.40
2022-09-23T02:58:30.290Z,7.10
2022-09-23T03:01:22.139Z,7.20
2022-09-23T03:03:53.902Z,7.30
2022-09-23T03:06:39.380Z,7.30
2022-09-23T03:09:13.288Z,7.30
2022-09-23T03:11:45.036Z,5.80
2022-09-23T03:14:26.692Z,7.30
2022-09-23T03:17:02.076Z,7.30
2022-09-23T03:19:38.026Z,7.30
2022-09-23T03:22:21.913Z,7.30
2022-09-23T03:24:54.073Z,7.30
2022-09-23T03:27:28.158Z,7.20
2022-09-23T03:29:58.051Z,7.30
2022-09-23T03:32:28.053Z,7.30
2022-09-23T03:34:57.095Z,7.30
2022-09-23T03:37:38.750Z,7.30
2022-09-23T03:40:25.377Z,7.30
2022-09-23T03:42:56.311Z,7.40
2022-09-23T03:45:29.938Z,7.30
2022-09-23T03:47:57.554Z,7.30
2022-09-23T03:50:25.108Z,7.60
2022-09-23T03:52:52.895Z,7.30
2022-09-23T03:55:21.355Z,7.70
2022-09-23T03:57:49.015Z,7.50
2022-09-23T04:00:17.144Z,7.40
2022-09-23T04:02:44.726Z,7.40
2022-09-23T04:05:13.436Z,7.40
2022-09-23T04:07:41.520Z,7.40
2022-09-23T04:10:10.078Z,7.50
2022-09-23T04:12:37.923Z,7.40
2022-09-23T04:15:05.950Z,7.00
2022-09-23T04:20:01.194Z,7.50
2022-09-23T04:22:29.001Z,7.10
2022-09-23T04:24:57.493Z,7.00
2022-09-23T04:27:25.519Z,7.50
2022-09-23T04:29:53.716Z,7.40
2022-09-23T04:32:21.278Z,7.20
2022-09-23T04:34:48.886Z,7.60
2022-09-23T04:37:16.811Z,7.80
2022-09-23T04:39:44.570Z,7.70
2022-09-23T04:42:12.409Z,7.20
2022-09-23T04:47:07.940Z,7.20
2022-09-23T04:49:35.905Z,7.80
2022-09-23T04:52:05.537Z,7.90
2022-09-23T04:54:33.447Z,7.90
2022-09-23T04:57:01.082Z,7.90
2022-09-23T04:59:30.381Z,7.90
2022-09-23T05:06:53.867Z,8.00
2022-09-23T05:11:49.132Z,8.10
2022-09-23T05:14:17.086Z,8.10
2022-09-23T05:16:44.712Z,8.10
2022-09-23T05:19:13.656Z,8.10
2022-09-23T05:21:41.620Z,8.20
2022-09-23T05:26:37.461Z,8.10
2022-09-23T05:29:06.136Z,8.40
2022-09-23T05:31:34.136Z,8.60
2022-09-23T05:34:03.588Z,8.50
2022-09-23T05:36:38.420Z,8.70
2022-09-23T05:39:07.473Z,8.90
2022-09-23T05:41:35.341Z,8.90
2022-09-23T05:44:03.367Z,9.30
2022-09-23T05:49:02.842Z,9.20
2022-09-23T05:51:32.469Z,9.30
2022-09-23T05:54:04.486Z,9.40
2022-09-23T05:56:33.550Z,9.50
2022-09-23T05:59:02.159Z,9.60
2022-09-23T06:01:33.878Z,9.70
2022-09-23T06:04:03.375Z,9.90
2022-09-23T06:06:43.479Z,10.00
2022-09-23T06:09:14.523Z,10.30
2022-09-23T06:11:42.777Z,10.40
2022-09-23T06:16:43.301Z,10.80
2022-09-23T06:19:11.043Z,10.80
2022-09-23T06:21:40.467Z,10.70
2022-09-23T06:24:08.935Z,10.60
2022-09-23T06:26:40.656Z,10.60
2022-09-23T06:29:12.381Z,10.50
2022-09-23T06:31:42.123Z,12.30
2022-09-23T06:34:14.669Z,13.00
2022-09-23T06:39:15.452Z,14.40
2022-09-23T06:41:43.988Z,15.70
2022-09-23T06:44:11.714Z,16.50
2022-09-23T06:46:39.376Z,17.20
2022-09-23T06:49:07.162Z,17.40
2022-09-23T06:51:34.705Z,18.30
2022-09-23T06:54:02.854Z,18.90
2022-09-23T06:56:37.993Z,19.30
2022-09-23T06:59:07.057Z,19.40
2022-09-23T07:01:35.041Z,19.60
2022-09-23T07:04:03.055Z,20.40
2022-09-23T07:06:30.497Z,20.60
2022-09-23T07:08:58.147Z,21.20
2022-09-23T07:11:25.731Z,21.40
2022-09-23T07:13:55.641Z,21.20
2022-09-23T07:16:23.311Z,21.60
2022-09-23T07:21:20.286Z,23.80
2022-09-23T07:23:50.473Z,24.50
2022-09-23T07:26:19.044Z,24.00
2022-09-23T07:29:15.885Z,23.30
2022-09-23T07:34:15.508Z,24.90
2022-09-23T07:36:43.271Z,25.10
2022-09-23T07:39:12.731Z,24.90
2022-09-23T07:41:41.911Z,24.30
2022-09-23T07:44:11.878Z,22.90
2022-09-23T07:46:44.799Z,24.70
2022-09-23T07:54:16.512Z,25.80
2022-09-23T07:56:44.494Z,25.90
2022-09-23T07:59:15.544Z,26.50
2022-09-23T08:01:52.718Z,24.70
2022-09-23T08:04:23.970Z,24.60
2022-09-23T08:06:57.713Z,23.70
2022-09-23T08:09:27.576Z,24.40
2022-09-23T08:11:55.072Z,24.30
2022-09-23T08:21:47.981Z,26.80
2022-09-23T08:29:16.754Z,27.00
2022-09-23T08:31:44.560Z,25.40
2022-09-23T08:36:41.636Z,23.70
2022-09-23T08:39:13.025Z,22.90
2022-09-23T08:42:01.605Z,22.50
2022-09-23T08:44:52.995Z,20.20
2022-09-23T08:50:07.817Z,19.60
2022-09-23T08:52:39.911Z,19.30
2022-09-23T08:58:24.432Z,18.50
2022-09-23T09:01:11.131Z,18.70
2022-09-23T09:03:56.523Z,19.30
2022-09-23T09:06:52.874Z,19.80
2022-09-23T09:09:29.651Z,19.80
2022-09-23T09:12:10.610Z,20.10
2022-09-23T09:14:58.021Z,20.40
2022-09-23T09:17:50.886Z,20.40
2022-09-23T09:20:24.760Z,20.50
2022-09-23T09:23:02.434Z,20.60
2022-09-23T09:25:56.362Z,20.70
2022-09-23T09:28:35.859Z,21.20
2022-09-23T09:31:24.871Z,21.40
2022-09-23T09:34:06.344Z,21.10
2022-09-23T09:36:40.397Z,20.40
2022-09-23T09:39:13.555Z,19.80
2022-09-23T09:41:58.594Z,19.20
2022-09-23T09:44:40.207Z,18.10
2022-09-23T09:47:28.593Z,18.30
2022-09-23T09:50:07.261Z,18.10
2022-09-23T09:52:38.930Z,18.50
2022-09-23T09:55:24.514Z,19.00
2022-09-23T09:58:05.938Z,18.60
2022-09-23T10:00:46.072Z,18.10
2022-09-23T10:03:32.381Z,17.50
2022-09-23T10:06:12.990Z,19.10
2022-09-23T10:11:19.154Z,20.90
2022-09-23T10:13:58.839Z,21.10
2022-09-23T10:16:27.033Z,20.20
2022-09-23T10:18:57.089Z,19.90
2022-09-23T10:21:28.067Z,19.10
2022-09-23T10:23:58.697Z,18.30
2022-09-23T10:29:04.021Z,17.00
2022-09-23T10:31:33.827Z,16.50
2022-09-23T10:34:24.469Z,16.20
2022-09-23T10:37:02.832Z,15.80
2022-09-23T10:39:48.846Z,15.40
2022-09-23T11:04:18.734Z,15.20
2022-09-23T11:07:10.629Z,15.10
2022-09-23T11:10:23.345Z,14.80
2022-09-23T11:13:35.958Z,15.00
2022-09-23T11:16:17.898Z,15.50
2022-09-23T11:19:12.343Z,15.00
2022-09-23T11:22:03.542Z,15.20
2022-09-23T11:24:58.501Z,15.30
2022-09-23T11:27:51.500Z,15.50
2022-09-23T11:30:20.783Z,15.70
2022-09-23T11:33:14.397Z,15.90
2022-09-23T11:35:48.692Z,16.00
2022-09-23T11:38:26.070Z,16.10
2022-09-23T11:41:03.482Z,16.10
2022-09-23T11:43:36.688Z,16.00
2022-09-23T11:46:18.957Z,15.90
2022-09-23T11:48:56.243Z,16.00
2022-09-23T11:51:37.632Z,16.00
2022-09-23T11:54:10.066Z,15.90
2022-09-23T11:56:53.818Z,16.00
2022-09-23T11:59:39.269Z,15.20
2022-09-23T12:02:43.596Z,15.80
2022-09-23T12:05:24.738Z,15.90
2022-09-23T12:08:15.993Z,16.00
2022-09-23T12:11:15.903Z,16.00
2022-09-23T12:14:14.533Z,15.80
2022-09-23T12:17:08.060Z,15.60
2022-09-23T12:19:57.035Z,16.40
2022-09-23T12:23:09.377Z,16.90
2022-09-23T12:25:46.695Z,16.80
2022-09-23T12:28:37.763Z,16.90
2022-09-23T12:31:10.567Z,17.00
2022-09-23T12:33:38.816Z,17.10
2022-09-23T12:36:12.304Z,17.20
2022-09-23T12:38:48.677Z,16.90
2022-09-23T12:41:37.588Z,16.90
2022-09-23T12:44:32.003Z,16.80
2022-09-23T12:47:28.977Z,16.60
2022-09-23T12:49:57.356Z,16.40
2022-09-23T12:52:35.693Z,16.20
2022-09-23T12:55:23.302Z,15.70
2022-09-23T12:57:50.895Z,15.50
2022-09-23T13:00:22.915Z,15.20
2022-09-23T13:03:13.579Z,15.00
2022-09-23T13:08:36.718Z,14.60
2022-09-23T13:11:07.311Z,14.50
2022-09-23T13:13:41.937Z,14.30
2022-09-23T13:18:51.050Z,14.20
2022-09-23T13:21:39.658Z,14.20
2022-09-23T13:24:20.609Z,14.30
2022-09-23T13:26:54.626Z,14.40
2022-09-23T13:29:45.389Z,14.30
2022-09-23T13:32:17.917Z,14.30
2022-09-23T13:34:59.113Z,14.10
2022-09-23T13:37:47.603Z,14.30
2022-09-23T13:40:21.328Z,14.30
2022-09-23T13:42:55.420Z,14.60
2022-09-23T13:45:24.308Z,14.00
2022-09-23T13:47:54.603Z,13.60
2022-09-23T13:50:25.855Z,13.30
2022-09-23T13:52:59.912Z,13.30
2022-09-23T13:55:37.496Z,13.20
2022-09-23T13:58:19.349Z,12.40
2022-09-23T14:00:47.288Z,12.30
2022-09-23T14:03:21.740Z,12.20
2022-09-23T14:05:50.057Z,12.10
2022-09-23T14:08:18.117Z,12.00
2022-09-23T14:10:46.954Z,12.00
2022-09-23T14:13:25.543Z,12.00
2022-09-23T14:15:55.693Z,11.90
2022-09-23T14:18:47.166Z,11.90
2022-09-23T14:21:35.388Z,11.90
2022-09-23T14:24:23.325Z,11.90
2022-09-23T14:27:20.171Z,11.80
2022-09-23T14:29:49.986Z,11.80
2022-09-23T14:32:25.011Z,11.90
2022-09-23T14:35:01.658Z,11.80
2022-09-23T14:37:55.973Z,11.70
2022-09-23T14:40:32.475Z,11.70
2022-09-23T14:43:23.255Z,11.70
2022-09-23T14:45:56.875Z,11.80
2022-09-23T14:48:57.392Z,11.80
2022-09-23T14:51:37.857Z,11.80
2022-09-23T14:54:36.375Z,11.80
2022-09-23T14:57:24.013Z,11.80
2022-09-23T15:00:09.812Z,11.90
2022-09-23T15:02:39.391Z,11.90
2022-09-23T15:05:15.983Z,11.90
2022-09-23T15:07:47.989Z,11.90
2022-09-23T15:10:23.644Z,11.90
2022-09-23T15:12:53.331Z,12.30
2022-09-23T15:15:28.118Z,11.90
2022-09-23T15:17:56.263Z,11.90
2022-09-23T15:20:27.917Z,11.90
2022-09-23T15:22:56.173Z,11.80
2022-09-23T15:25:32.786Z,11.70
2022-09-23T15:28:12.695Z,11.60
2022-09-23T15:30:41.335Z,11.40
2022-09-23T15:33:12.561Z,11.90
2022-09-23T15:35:48.791Z,11.30
2022-09-23T15:38:17.695Z,11.20
2022-09-23T15:40:45.326Z,11.20
2022-09-23T15:43:20.606Z,11.10
2022-09-23T15:51:06.919Z,10.70
2022-09-23T15:53:34.779Z,10.80
2022-09-23T15:56:02.652Z,11.00
2022-09-23T15:58:30.457Z,10.70
2022-09-23T16:00:59.901Z,10.60
2022-09-23T16:03:31.139Z,10.50
2022-09-23T16:06:02.479Z,10.40
2022-09-23T16:08:32.344Z,10.30
2022-09-23T16:10:59.944Z,10.50
2022-09-23T16:13:27.930Z,10.10
2022-09-23T16:15:56.421Z,10.10
2022-09-23T16:18:24.317Z,10.00
2022-09-23T16:20:51.877Z,9.90
2022-09-23T16:23:34.846Z,9.80
2022-09-23T16:26:04.265Z,9.70
2022-09-23T16:28:32.156Z,9.60
2022-09-23T16:31:00.126Z,9.40
2022-09-23T16:33:27.914Z,9.40
2022-09-23T16:35:55.480Z,9.30
2022-09-23T16:38:23.169Z,9.20
2022-09-23T16:40:51.026Z,9.10
2022-09-23T16:48:14.689Z,8.80
2022-09-23T16:53:11.778Z,8.70
2022-09-23T16:58:09.472Z,8.60
2022-09-23T17:00:55.516Z,8.60
2022-09-23T17:03:41.526Z,8.60
2022-09-23T17:06:15.078Z,8.50
2022-09-23T17:08:43.631Z,8.40
2022-09-23T17:11:14.397Z,8.40
2022-09-23T17:13:42.503Z,8.30
2022-09-23T17:16:12.023Z,8.30
2022-09-23T17:18:39.721Z,8.20
2022-09-23T17:23:37.180Z,8.00
2022-09-23T17:26:06.012Z,8.00
2022-09-23T17:33:32.739Z,7.70
2022-09-23T17:36:01.700Z,7.70
2022-09-23T17:38:29.749Z,7.60
2022-09-23T17:46:07.512Z,6.60
2022-09-23T17:48:37.258Z,7.40
2022-09-23T17:51:14.182Z,7.30
2022-09-23T17:53:45.152Z,7.30
2022-09-23T18:01:19.617Z,7.10
2022-09-23T18:03:50.597Z,7.00
2022-09-23T18:11:17.228Z,6.80
2022-09-23T18:13:53.016Z,6.70
2022-09-23T18:16:23.784Z,6.70
2022-09-23T18:26:21.391Z,6.50
2022-09-23T18:28:50.125Z,6.50
2022-09-23T18:31:18.069Z,6.50
2022-09-23T18:33:50.583Z,6.40
2022-09-23T18:36:18.156Z,6.40
2022-09-23T18:38:46.252Z,6.40
2022-09-23T18:41:14.108Z,6.10
2022-09-23T18:43:46.330Z,6.50
2022-09-23T18:46:19.120Z,6.40
2022-09-23T18:49:05.405Z,6.40
2022-09-23T18:51:34.958Z,6.50
2022-09-23T18:54:04.372Z,6.50
2022-09-23T18:56:41.147Z,6.50
2022-09-23T18:59:12.165Z,6.50
2022-09-23T19:01:39.807Z,6.50
2022-09-23T19:04:07.511Z,6.40
2022-09-23T19:06:35.778Z,6.20
2022-09-23T19:09:05.451Z,6.30
2022-09-23T19:14:01.532Z,6.40
2022-09-23T19:16:31.833Z,6.40
2022-09-23T19:19:00.440Z,6.40
2022-09-23T19:21:28.813Z,6.40
2022-09-23T19:24:04.524Z,6.40
2022-09-23T19:26:37.600Z,6.50
2022-09-23T19:29:08.239Z,6.50
2022-09-23T19:31:41.587Z,6.40
2022-09-23T19:34:13.887Z,6.40
2022-09-23T19:36:43.140Z,6.40
2022-09-23T19:39:22.348Z,6.40
2022-09-23T19:41:50.613Z,6.40
2022-09-23T19:46:55.028Z,6.40
2022-09-23T19:49:24.786Z,6.20
2022-09-23T19:51:55.478Z,6.30
2022-09-23T19:54:26.177Z,6.10
2022-09-23T19:56:53.691Z,6.20
2022-09-23T20:01:49.581Z,6.20
2022-09-23T20:04:18.056Z,6.10
2022-09-23T20:09:14.156Z,6.10
2022-09-23T20:11:43.213Z,6.20
2022-09-23T20:14:12.009Z,6.20
2022-09-23T20:16:40.505Z,6.30
2022-09-23T20:19:08.381Z,6.30
2022-09-23T20:24:07.634Z,6.20
2022-09-23T20:26:55.151Z,6.20
2022-09-23T20:31:50.706Z,6.20
2022-09-23T20:36:46.388Z,6.10
2022-09-23T20:39:14.019Z,6.10
2022-09-23T20:41:41.877Z,6.10
2022-09-23T20:44:12.670Z,6.30
2022-09-23T20:46:45.462Z,6.10
2022-09-23T20:49:16.211Z,6.10
2022-09-23T20:51:43.858Z,6.10
2022-09-23T20:56:39.694Z,6.10
2022-09-23T20:59:07.425Z,6.10
2022-09-23T21:01:37.044Z,6.10
2022-09-23T21:04:06.134Z,6.10
2022-09-23T21:06:36.696Z,6.00
2022-09-23T21:09:05.630Z,6.00
2022-09-23T21:11:34.037Z,5.90
2022-09-23T21:21:25.336Z,5.80
2022-09-23T21:26:23.290Z,5.80
2022-09-23T21:28:59.336Z,5.80
2022-09-23T21:31:37.229Z,5.80
2022-09-23T21:34:06.812Z,5.90
2022-09-23T21:36:39.544Z,5.80
2022-09-23T21:39:09.202Z,5.90
2022-09-23T21:41:36.937Z,5.90
2022-09-23T21:44:05.241Z,5.90
2022-09-23T21:46:36.359Z,5.90
2022-09-23T21:49:04.283Z,6.00
2022-09-23T21:51:43.095Z,5.90
2022-09-23T21:54:15.948Z,5.90
2022-09-23T21:56:46.522Z,5.90
2022-09-23T21:59:14.148Z,5.90
2022-09-23T22:01:48.342Z,5.90
2022-09-23T22:04:19.717Z,6.00
2022-09-23T22:09:19.433Z,6.00
2022-09-23T22:12:05.379Z,6.00
2022-09-23T22:14:33.099Z,6.00
2022-09-23T22:19:35.510Z,6.10
2022-09-23T22:22:13.981Z,6.10
2022-09-23T22:24:46.208Z,6.10
2022-09-23T22:27:16.822Z,6.10
2022-09-23T22:30:02.722Z,6.10
2022-09-23T22:32:43.652Z,6.20
2022-09-23T22:35:19.074Z,6.20
2022-09-23T22:40:16.670Z,6.30
2022-09-23T22:42:44.490Z,6.30
2022-09-23T22:45:13.469Z,6.40
2022-09-23T22:47:45.398Z,6.40
2022-09-23T22:52:42.230Z,6.40
2022-09-23T22:55:10.110Z,6.40
2022-09-23T22:57:37.925Z,6.40
2022-09-23T23:00:06.750Z,6.40
2022-09-23T23:05:02.328Z,6.40
2022-09-23T23:07:30.020Z,6.40
2022-09-23T23:09:58.115Z,6.40
2022-09-23T23:12:25.874Z,6.50
2022-09-23T23:14:53.498Z,6.40
2022-09-23T23:17:21.879Z,6.50
2022-09-23T23:19:50.665Z,6.50
2022-09-23T23:22:18.254Z,6.50
2022-09-23T23:24:46.093Z,6.50
2022-09-23T23:27:13.616Z,6.40
2022-09-23T23:29:41.977Z,6.50
2022-09-23T23:32:09.957Z,6.50
2022-09-23T23:34:37.706Z,6.50
2022-09-23T23:37:05.525Z,7.50
2022-09-23T23:39:34.942Z,6.50
2022-09-23T23:42:03.805Z,6.50
2022-09-23T23:44:33.979Z,6.50
2022-09-23T23:47:01.843Z,6.90
2022-09-23T23:49:29.773Z,6.60
2022-09-23T23:54:25.515Z,6.60
2022-09-23T23:56:53.202Z,6.60
2022-09-23T23:59:20.991Z,5.50
